sensor_id;sensor_type;location;lat;lon;timestamp;temperature;humidity
2749;DHT22;1382;52.142;11.618;2024-01-07T00:00:24;4.80;58.00
2749;DHT22;1382;52.142;11.618;2024-01-07T00:02:51;5.00;58.20
2749;DHT22;1382;52.142;11.618;2024-01-07T00:05:18;4.80;58.00
2749;DHT22;1382;52.142;11.618;2024-01-07T00:07:45;4.60;57.80
2749;DHT22;1382;52.142;11.618;2024-01-07T00:10:12;4.80;58.10
2749;DHT22;1382;52.142;11.618;2024-01-07T00:12:39;4.80;57.90
2749;DHT22;1382;52.142;11.618;2024-01-07T00:15:07;4.80;57.80
2749;DHT22;1382;52.142;11.618;2024-01-07T00:17:35;4.70;57.80
2749;DHT22;1382;52.142;11.618;2024-01-07T00:20:03;4.90;58.00
2749;DHT22;1382;52.142;11.618;2024-01-07T00:22:31;4.80;57.90
2749;DHT22;1382;52.142;11.618;2024-01-07T00:24:58;4.70;57.70
2749;DHT22;1382;52.142;11.618;2024-01-07T00:27:25;4.70;57.70
2749;DHT22;1382;52.142;11.618;2024-01-07T00:29:52;4.70;57.80
2749;DHT22;1382;52.142;11.618;2024-01-07T00:32:19;4.70;57.70
2749;DHT22;1382;52.142;11.618;2024-01-07T00:34:50;4.70;57.70
2749;DHT22;1382;52.142;11.618;2024-01-07T00:37:21;4.70;57.80
2749;DHT22;1382;52.142;11.618;2024-01-07T00:39:48;4.70;57.80
2749;DHT22;1382;52.142;11.618;2024-01-07T00:42:15;4.70;57.90
2749;DHT22;1382;52.142;11.618;2024-01-07T00:44:42;4.80;57.90
2749;DHT22;1382;52.142;11.618;2024-01-07T00:47:09;4.80;57.80
2749;DHT22;1382;52.142;11.618;2024-01-07T00:49:35;4.60;58.40
2749;DHT22;1382;52.142;11.618;2024-01-07T00:52:04;4.60;57.70
2749;DHT22;1382;52.142;11.618;2024-01-07T00:54:31;4.60;57.80
2749;DHT22;1382;52.142;11.618;2024-01-07T00:56:58;4.50;57.80
2749;DHT22;1382;52.142;11.618;2024-01-07T00:59:25;4.50;57.70
2749;DHT22;1382;52.142;11.618;2024-01-07T01:01:52;4.50;57.70
2749;DHT22;1382;52.142;11.618;2024-01-07T01:04:19;4.70;57.80
2749;DHT22;1382;52.142;11.618;2024-01-07T01:06:45;4.50;57.60
2749;DHT22;1382;52.142;11.618;2024-01-07T01:09:14;4.50;57.60
2749;DHT22;1382;52.142;11.618;2024-01-07T01:11:41;4.50;57.70
2749;DHT22;1382;52.142;11.618;2024-01-07T01:14:07;4.50;57.70
2749;DHT22;1382;52.142;11.618;2024-01-07T01:16:34;4.50;57.60
2749;DHT22;1382;52.142;11.618;2024-01-07T01:19:01;4.50;57.60
2749;DHT22;1382;52.142;11.618;2024-01-07T01:21:28;4.50;57.60
2749;DHT22;1382;52.142;11.618;2024-01-07T01:23:55;4.50;57.60
2749;DHT22;1382;52.142;11.618;2024-01-07T01:26:23;4.50;57.60
2749;DHT22;1382;52.142;11.618;2024-01-07T01:28:50;4.50;57.50
2749;DHT22;1382;52.142;11.618;2024-01-07T01:31:17;4.50;57.40
2749;DHT22;1382;52.142;11.618;2024-01-07T01:33:44;4.40;57.40
2749;DHT22;1382;52.142;11.618;2024-01-07T01:36:11;4.40;57.50
2749;DHT22;1382;52.142;11.618;2024-01-07T01:38:38;4.40;57.40
2749;DHT22;1382;52.142;11.618;2024-01-07T01:41:05;4.40;57.50
2749;DHT22;1382;52.142;11.618;2024-01-07T01:43:33;4.40;57.40
2749;DHT22;1382;52.142;11.618;2024-01-07T01:46:00;4.40;57.40
2749;DHT22;1382;52.142;11.618;2024-01-07T01:48:27;4.30;57.30
2749;DHT22;1382;52.142;11.618;2024-01-07T01:50:55;4.30;57.30
2749;DHT22;1382;52.142;11.618;2024-01-07T01:53:22;4.40;57.50
2749;DHT22;1382;52.142;11.618;2024-01-07T01:55:49;4.20;57.40
2749;DHT22;1382;52.142;11.618;2024-01-07T01:58:18;4.20;57.30
2749;DHT22;1382;52.142;11.618;2024-01-07T02:00:47;4.20;57.30
2749;DHT22;1382;52.142;11.618;2024-01-07T02:03:14;4.30;57.40
2749;DHT22;1382;52.142;11.618;2024-01-07T02:05:41;4.20;57.20
2749;DHT22;1382;52.142;11.618;2024-01-07T02:08:08;4.10;57.30
2749;DHT22;1382;52.142;11.618;2024-01-07T02:10:35;4.20;57.20
2749;DHT22;1382;52.142;11.618;2024-01-07T02:13:04;4.20;57.20
2749;DHT22;1382;52.142;11.618;2024-01-07T02:15:31;4.20;57.30
2749;DHT22;1382;52.142;11.618;2024-01-07T02:18:00;4.20;57.20
2749;DHT22;1382;52.142;11.618;2024-01-07T02:20:27;4.20;57.10
2749;DHT22;1382;52.142;11.618;2024-01-07T02:22:54;4.20;57.10
2749;DHT22;1382;52.142;11.618;2024-01-07T02:25:22;4.20;57.10
2749;DHT22;1382;52.142;11.618;2024-01-07T02:27:49;4.20;57.10
2749;DHT22;1382;52.142;11.618;2024-01-07T02:30:16;4.20;57.00
2749;DHT22;1382;52.142;11.618;2024-01-07T02:32:43;4.40;57.10
2749;DHT22;1382;52.142;11.618;2024-01-07T02:35:10;4.20;57.00
2749;DHT22;1382;52.142;11.618;2024-01-07T02:37:37;4.20;56.90
2749;DHT22;1382;52.142;11.618;2024-01-07T02:40:04;4.10;56.90
2749;DHT22;1382;52.142;11.618;2024-01-07T02:42:33;4.10;57.00
2749;DHT22;1382;52.142;11.618;2024-01-07T02:45:00;4.10;57.00
2749;DHT22;1382;52.142;11.618;2024-01-07T02:47:26;4.00;57.00
2749;DHT22;1382;52.142;11.618;2024-01-07T02:49:53;4.00;57.00
2749;DHT22;1382;52.142;11.618;2024-01-07T02:52:20;4.00;56.90
2749;DHT22;1382;52.142;11.618;2024-01-07T02:54:47;4.00;56.90
2749;DHT22;1382;52.142;11.618;2024-01-07T02:57:14;4.00;56.90
2749;DHT22;1382;52.142;11.618;2024-01-07T02:59:42;4.00;56.90
2749;DHT22;1382;52.142;11.618;2024-01-07T03:02:09;4.00;56.90
2749;DHT22;1382;52.142;11.618;2024-01-07T03:04:36;4.00;56.90
2749;DHT22;1382;52.142;11.618;2024-01-07T03:07:03;4.00;56.80
2749;DHT22;1382;52.142;11.618;2024-01-07T03:09:30;4.00;56.90
2749;DHT22;1382;52.142;11.618;2024-01-07T03:11:57;4.00;56.80
2749;DHT22;1382;52.142;11.618;2024-01-07T03:14:23;4.00;56.80
2749;DHT22;1382;52.142;11.618;2024-01-07T03:16:52;4.00;56.70
2749;DHT22;1382;52.142;11.618;2024-01-07T03:19:18;4.00;56.70
2749;DHT22;1382;52.142;11.618;2024-01-07T03:21:45;4.10;56.80
2749;DHT22;1382;52.142;11.618;2024-01-07T03:24:12;4.00;56.70
2749;DHT22;1382;52.142;11.618;2024-01-07T03:26:39;4.00;56.60
2749;DHT22;1382;52.142;11.618;2024-01-07T03:29:06;4.00;56.60
2749;DHT22;1382;52.142;11.618;2024-01-07T03:31:33;3.90;56.60
2749;DHT22;1382;52.142;11.618;2024-01-07T03:34:02;3.80;56.60
2749;DHT22;1382;52.142;11.618;2024-01-07T03:36:28;3.80;56.60
2749;DHT22;1382;52.142;11.618;2024-01-07T03:38:55;3.80;56.50
2749;DHT22;1382;52.142;11.618;2024-01-07T03:41:22;4.00;56.60
2749;DHT22;1382;52.142;11.618;2024-01-07T03:43:49;3.80;56.40
2749;DHT22;1382;52.142;11.618;2024-01-07T03:46:16;3.70;56.40
2749;DHT22;1382;52.142;11.618;2024-01-07T03:48:44;3.70;56.30
2749;DHT22;1382;52.142;11.618;2024-01-07T03:51:13;3.60;56.10
2749;DHT22;1382;52.142;11.618;2024-01-07T03:53:40;3.60;56.20
2749;DHT22;1382;52.142;11.618;2024-01-07T03:56:07;3.60;56.10
2749;DHT22;1382;52.142;11.618;2024-01-07T03:58:34;3.70;56.20
2749;DHT22;1382;52.142;11.618;2024-01-07T04:01:01;3.50;56.20
2749;DHT22;1382;52.142;11.618;2024-01-07T04:03:28;3.60;56.20
2749;DHT22;1382;52.142;11.618;2024-01-07T04:05:55;3.50;56.20
2749;DHT22;1382;52.142;11.618;2024-01-07T04:08:23;3.50;56.00
2749;DHT22;1382;52.142;11.618;2024-01-07T04:10:50;3.50;56.20
2749;DHT22;1382;52.142;11.618;2024-01-07T04:13:17;3.50;56.20
2749;DHT22;1382;52.142;11.618;2024-01-07T04:15:44;3.50;56.00
2749;DHT22;1382;52.142;11.618;2024-01-07T04:18:11;3.50;56.10
2749;DHT22;1382;52.142;11.618;2024-01-07T04:20:38;3.50;56.00
2749;DHT22;1382;52.142;11.618;2024-01-07T04:23:05;3.50;56.00
2749;DHT22;1382;52.142;11.618;2024-01-07T04:25:33;3.50;56.10
2749;DHT22;1382;52.142;11.618;2024-01-07T04:28:00;3.50;56.00
2749;DHT22;1382;52.142;11.618;2024-01-07T04:30:27;3.50;55.90
2749;DHT22;1382;52.142;11.618;2024-01-07T04:32:54;3.50;55.90
2749;DHT22;1382;52.142;11.618;2024-01-07T04:35:21;3.50;55.80
2749;DHT22;1382;52.142;11.618;2024-01-07T04:37:48;3.40;55.80
2749;DHT22;1382;52.142;11.618;2024-01-07T04:40:15;3.40;55.70
2749;DHT22;1382;52.142;11.618;2024-01-07T04:42:43;3.40;55.60
2749;DHT22;1382;52.142;11.618;2024-01-07T04:45:10;3.40;55.70
2749;DHT22;1382;52.142;11.618;2024-01-07T04:47:37;3.40;55.70
2749;DHT22;1382;52.142;11.618;2024-01-07T04:50:04;3.30;55.30
2749;DHT22;1382;52.142;11.618;2024-01-07T04:52:31;3.30;55.20
2749;DHT22;1382;52.142;11.618;2024-01-07T04:54:58;3.30;55.60
2749;DHT22;1382;52.142;11.618;2024-01-07T04:57:25;3.30;55.70
2749;DHT22;1382;52.142;11.618;2024-01-07T04:59:54;3.20;55.50
2749;DHT22;1382;52.142;11.618;2024-01-07T05:02:21;3.20;55.60
2749;DHT22;1382;52.142;11.618;2024-01-07T05:04:47;3.20;55.30
2749;DHT22;1382;52.142;11.618;2024-01-07T05:07:14;3.10;55.10
2749;DHT22;1382;52.142;11.618;2024-01-07T05:09:41;3.10;55.30
2749;DHT22;1382;52.142;11.618;2024-01-07T05:12:12;3.10;55.40
2749;DHT22;1382;52.142;11.618;2024-01-07T05:14:39;3.10;55.30
2749;DHT22;1382;52.142;11.618;2024-01-07T05:17:08;3.10;55.50
2749;DHT22;1382;52.142;11.618;2024-01-07T05:19:35;3.10;55.50
2749;DHT22;1382;52.142;11.618;2024-01-07T05:22:02;3.00;55.40
2749;DHT22;1382;52.142;11.618;2024-01-07T05:24:28;3.00;55.40
2749;DHT22;1382;52.142;11.618;2024-01-07T05:26:58;3.10;55.40
2749;DHT22;1382;52.142;11.618;2024-01-07T05:29:25;3.10;55.30
2749;DHT22;1382;52.142;11.618;2024-01-07T05:31:52;3.00;55.20
2749;DHT22;1382;52.142;11.618;2024-01-07T05:34:20;3.00;55.30
2749;DHT22;1382;52.142;11.618;2024-01-07T05:36:47;3.00;55.30
2749;DHT22;1382;52.142;11.618;2024-01-07T05:39:14;2.90;55.20
2749;DHT22;1382;52.142;11.618;2024-01-07T05:41:41;2.80;55.10
2749;DHT22;1382;52.142;11.618;2024-01-07T05:44:09;2.80;55.10
2749;DHT22;1382;52.142;11.618;2024-01-07T05:46:38;2.90;55.30
2749;DHT22;1382;52.142;11.618;2024-01-07T05:49:05;2.90;55.20
2749;DHT22;1382;52.142;11.618;2024-01-07T05:51:37;2.80;55.20
2749;DHT22;1382;52.142;11.618;2024-01-07T05:54:04;2.80;55.10
2749;DHT22;1382;52.142;11.618;2024-01-07T05:56:31;2.80;55.00
2749;DHT22;1382;52.142;11.618;2024-01-07T05:58:58;2.80;55.10
2749;DHT22;1382;52.142;11.618;2024-01-07T06:01:25;2.80;55.00
2749;DHT22;1382;52.142;11.618;2024-01-07T06:03:52;2.80;55.00
2749;DHT22;1382;52.142;11.618;2024-01-07T06:06:19;2.80;55.10
2749;DHT22;1382;52.142;11.618;2024-01-07T06:08:48;2.80;54.90
2749;DHT22;1382;52.142;11.618;2024-01-07T06:11:14;2.80;54.90
2749;DHT22;1382;52.142;11.618;2024-01-07T06:13:41;2.80;54.70
2749;DHT22;1382;52.142;11.618;2024-01-07T06:16:08;2.80;54.80
2749;DHT22;1382;52.142;11.618;2024-01-07T06:18:35;2.70;54.80
2749;DHT22;1382;52.142;11.618;2024-01-07T06:21:04;2.80;54.80
2749;DHT22;1382;52.142;11.618;2024-01-07T06:23:32;2.80;54.60
2749;DHT22;1382;52.142;11.618;2024-01-07T06:26:03;2.60;54.30
2749;DHT22;1382;52.142;11.618;2024-01-07T06:28:29;2.60;54.60
2749;DHT22;1382;52.142;11.618;2024-01-07T06:30:56;2.60;54.70
2749;DHT22;1382;52.142;11.618;2024-01-07T06:33:25;2.60;54.80
2749;DHT22;1382;52.142;11.618;2024-01-07T06:35:52;2.50;54.80
2749;DHT22;1382;52.142;11.618;2024-01-07T06:38:19;2.60;54.80
2749;DHT22;1382;52.142;11.618;2024-01-07T06:40:46;2.60;54.70
2749;DHT22;1382;52.142;11.618;2024-01-07T06:43:14;2.60;54.80
2749;DHT22;1382;52.142;11.618;2024-01-07T06:45:42;2.50;54.60
2749;DHT22;1382;52.142;11.618;2024-01-07T06:48:09;2.60;54.70
2749;DHT22;1382;52.142;11.618;2024-01-07T06:50:36;2.60;54.60
2749;DHT22;1382;52.142;11.618;2024-01-07T06:53:03;2.60;54.60
2749;DHT22;1382;52.142;11.618;2024-01-07T06:55:30;2.60;54.60
2749;DHT22;1382;52.142;11.618;2024-01-07T06:57:57;2.60;54.50
2749;DHT22;1382;52.142;11.618;2024-01-07T07:00:25;2.50;54.50
2749;DHT22;1382;52.142;11.618;2024-01-07T07:02:52;2.60;54.50
2749;DHT22;1382;52.142;11.618;2024-01-07T07:05:19;2.50;54.40
2749;DHT22;1382;52.142;11.618;2024-01-07T07:07:47;2.50;54.30
2749;DHT22;1382;52.142;11.618;2024-01-07T07:10:14;2.50;54.40
2749;DHT22;1382;52.142;11.618;2024-01-07T07:12:41;2.50;54.40
2749;DHT22;1382;52.142;11.618;2024-01-07T07:15:08;2.50;54.30
2749;DHT22;1382;52.142;11.618;2024-01-07T07:17:36;2.50;54.30
2749;DHT22;1382;52.142;11.618;2024-01-07T07:20:04;2.50;54.30
2749;DHT22;1382;52.142;11.618;2024-01-07T07:22:31;2.50;54.40
2749;DHT22;1382;52.142;11.618;2024-01-07T07:24:58;2.50;54.40
2749;DHT22;1382;52.142;11.618;2024-01-07T07:27:28;2.50;54.40
2749;DHT22;1382;52.142;11.618;2024-01-07T07:29:55;2.50;54.70
2749;DHT22;1382;52.142;11.618;2024-01-07T07:32:22;2.50;54.40
2749;DHT22;1382;52.142;11.618;2024-01-07T07:34:50;2.40;54.40
2749;DHT22;1382;52.142;11.618;2024-01-07T07:37:17;2.60;54.50
2749;DHT22;1382;52.142;11.618;2024-01-07T07:39:47;2.40;54.30
2749;DHT22;1382;52.142;11.618;2024-01-07T07:42:14;2.40;54.50
2749;DHT22;1382;52.142;11.618;2024-01-07T07:44:41;2.40;54.50
2749;DHT22;1382;52.142;11.618;2024-01-07T07:47:08;2.40;54.30
2749;DHT22;1382;52.142;11.618;2024-01-07T07:49:35;2.40;54.40
2749;DHT22;1382;52.142;11.618;2024-01-07T07:52:04;2.40;54.30
2749;DHT22;1382;52.142;11.618;2024-01-07T07:54:31;2.50;54.40
2749;DHT22;1382;52.142;11.618;2024-01-07T07:57:01;2.50;54.40
2749;DHT22;1382;52.142;11.618;2024-01-07T07:59:28;2.50;54.40
2749;DHT22;1382;52.142;11.618;2024-01-07T08:01:55;2.50;54.30
2749;DHT22;1382;52.142;11.618;2024-01-07T08:04:23;2.50;54.30
2749;DHT22;1382;52.142;11.618;2024-01-07T08:06:49;2.50;54.30
2749;DHT22;1382;52.142;11.618;2024-01-07T08:09:18;2.70;54.50
2749;DHT22;1382;52.142;11.618;2024-01-07T08:11:45;2.50;54.30
2749;DHT22;1382;52.142;11.618;2024-01-07T08:14:12;2.50;54.30
2749;DHT22;1382;52.142;11.618;2024-01-07T08:16:38;2.50;54.30
2749;DHT22;1382;52.142;11.618;2024-01-07T08:19:05;2.60;54.30
2749;DHT22;1382;52.142;11.618;2024-01-07T08:21:32;2.60;54.40
2749;DHT22;1382;52.142;11.618;2024-01-07T08:23:59;2.60;54.30
2749;DHT22;1382;52.142;11.618;2024-01-07T08:26:28;2.60;54.30
2749;DHT22;1382;52.142;11.618;2024-01-07T08:28:55;2.60;54.30
2749;DHT22;1382;52.142;11.618;2024-01-07T08:31:21;2.60;54.30
2749;DHT22;1382;52.142;11.618;2024-01-07T08:33:48;2.60;54.10
2749;DHT22;1382;52.142;11.618;2024-01-07T08:36:15;2.60;54.20
2749;DHT22;1382;52.142;11.618;2024-01-07T08:38:42;2.60;54.20
2749;DHT22;1382;52.142;11.618;2024-01-07T08:41:09;2.50;54.10
2749;DHT22;1382;52.142;11.618;2024-01-07T08:43:38;2.60;54.00
2749;DHT22;1382;52.142;11.618;2024-01-07T08:46:05;2.60;54.00
2749;DHT22;1382;52.142;11.618;2024-01-07T08:48:32;2.70;54.20
2749;DHT22;1382;52.142;11.618;2024-01-07T08:50:59;2.80;54.20
2749;DHT22;1382;52.142;11.618;2024-01-07T08:53:26;2.70;54.10
2749;DHT22;1382;52.142;11.618;2024-01-07T08:55:53;2.70;54.10
2749;DHT22;1382;52.142;11.618;2024-01-07T08:58:20;2.80;54.10
2749;DHT22;1382;52.142;11.618;2024-01-07T09:00:48;2.70;54.00
2749;DHT22;1382;52.142;11.618;2024-01-07T09:03:18;2.70;54.00
2749;DHT22;1382;52.142;11.618;2024-01-07T09:05:45;2.70;54.10
2749;DHT22;1382;52.142;11.618;2024-01-07T09:08:12;2.80;54.10
2749;DHT22;1382;52.142;11.618;2024-01-07T09:10:39;2.80;54.10
2749;DHT22;1382;52.142;11.618;2024-01-07T09:13:06;2.80;54.10
2749;DHT22;1382;52.142;11.618;2024-01-07T09:15:36;2.80;54.10
2749;DHT22;1382;52.142;11.618;2024-01-07T09:18:05;2.80;54.00
2749;DHT22;1382;52.142;11.618;2024-01-07T09:20:32;2.90;54.10
2749;DHT22;1382;52.142;11.618;2024-01-07T09:23:01;2.90;54.10
2749;DHT22;1382;52.142;11.618;2024-01-07T09:25:27;2.90;54.00
2749;DHT22;1382;52.142;11.618;2024-01-07T09:27:54;2.80;53.90
2749;DHT22;1382;52.142;11.618;2024-01-07T09:30:21;2.90;54.00
2749;DHT22;1382;52.142;11.618;2024-01-07T09:32:51;2.90;54.00
2749;DHT22;1382;52.142;11.618;2024-01-07T09:35:20;2.90;53.90
2749;DHT22;1382;52.142;11.618;2024-01-07T09:37:47;2.90;54.00
2749;DHT22;1382;52.142;11.618;2024-01-07T09:40:17;3.00;54.00
2749;DHT22;1382;52.142;11.618;2024-01-07T09:42:44;3.10;54.00
2749;DHT22;1382;52.142;11.618;2024-01-07T09:45:13;3.00;53.90
2749;DHT22;1382;52.142;11.618;2024-01-07T09:47:41;3.00;53.90
2749;DHT22;1382;52.142;11.618;2024-01-07T09:50:09;2.90;53.80
2749;DHT22;1382;52.142;11.618;2024-01-07T09:52:38;3.00;53.70
2749;DHT22;1382;52.142;11.618;2024-01-07T09:55:07;3.10;53.90
2749;DHT22;1382;52.142;11.618;2024-01-07T09:57:37;3.00;53.80
2749;DHT22;1382;52.142;11.618;2024-01-07T10:00:06;3.20;54.00
2749;DHT22;1382;52.142;11.618;2024-01-07T10:02:34;3.10;53.90
2749;DHT22;1382;52.142;11.618;2024-01-07T10:05:01;3.10;54.50
2749;DHT22;1382;52.142;11.618;2024-01-07T10:07:28;3.10;53.90
2749;DHT22;1382;52.142;11.618;2024-01-07T10:10:09;3.20;53.90
2749;DHT22;1382;52.142;11.618;2024-01-07T10:12:38;3.10;53.80
2749;DHT22;1382;52.142;11.618;2024-01-07T10:15:06;3.10;53.80
2749;DHT22;1382;52.142;11.618;2024-01-07T10:17:33;3.10;53.70
2749;DHT22;1382;52.142;11.618;2024-01-07T10:20:05;3.10;53.80
2749;DHT22;1382;52.142;11.618;2024-01-07T10:22:36;3.10;53.70
2749;DHT22;1382;52.142;11.618;2024-01-07T10:25:06;3.30;53.80
2749;DHT22;1382;52.142;11.618;2024-01-07T10:27:34;3.20;53.80
2749;DHT22;1382;52.142;11.618;2024-01-07T10:30:07;3.20;53.70
2749;DHT22;1382;52.142;11.618;2024-01-07T10:32:42;3.20;53.70
2749;DHT22;1382;52.142;11.618;2024-01-07T10:35:13;3.20;53.70
2749;DHT22;1382;52.142;11.618;2024-01-07T10:37:40;3.30;53.70
2749;DHT22;1382;52.142;11.618;2024-01-07T10:40:11;3.30;53.70
2749;DHT22;1382;52.142;11.618;2024-01-07T10:42:39;3.30;53.70
2749;DHT22;1382;52.142;11.618;2024-01-07T10:45:07;3.30;53.70
2749;DHT22;1382;52.142;11.618;2024-01-07T10:47:34;3.30;53.60
2749;DHT22;1382;52.142;11.618;2024-01-07T10:50:03;3.30;53.60
2749;DHT22;1382;52.142;11.618;2024-01-07T10:52:32;3.30;53.60
2749;DHT22;1382;52.142;11.618;2024-01-07T10:55:08;3.40;53.70
2749;DHT22;1382;52.142;11.618;2024-01-07T10:57:42;3.30;53.50
2749;DHT22;1382;52.142;11.618;2024-01-07T11:00:11;3.40;54.30
2749;DHT22;1382;52.142;11.618;2024-01-07T11:02:44;3.40;53.60
2749;DHT22;1382;52.142;11.618;2024-01-07T11:05:20;3.40;53.60
2749;DHT22;1382;52.142;11.618;2024-01-07T11:07:56;3.40;53.60
2749;DHT22;1382;52.142;11.618;2024-01-07T11:10:28;3.50;53.60
2749;DHT22;1382;52.142;11.618;2024-01-07T11:13:09;3.50;53.60
2749;DHT22;1382;52.142;11.618;2024-01-07T11:15:51;3.40;53.50
2749;DHT22;1382;52.142;11.618;2024-01-07T11:18:18;3.50;53.50
2749;DHT22;1382;52.142;11.618;2024-01-07T11:20:46;3.50;53.60
2749;DHT22;1382;52.142;11.618;2024-01-07T11:23:29;3.50;53.40
2749;DHT22;1382;52.142;11.618;2024-01-07T11:25:57;3.60;53.50
2749;DHT22;1382;52.142;11.618;2024-01-07T11:28:48;3.50;53.40
2749;DHT22;1382;52.142;11.618;2024-01-07T11:31:16;3.60;53.40
2749;DHT22;1382;52.142;11.618;2024-01-07T11:33:45;3.50;53.60
2749;DHT22;1382;52.142;11.618;2024-01-07T11:36:13;3.60;53.70
2749;DHT22;1382;52.142;11.618;2024-01-07T11:38:43;3.60;53.50
2749;DHT22;1382;52.142;11.618;2024-01-07T11:41:12;3.60;52.90
2749;DHT22;1382;52.142;11.618;2024-01-07T11:43:53;3.60;53.00
2749;DHT22;1382;52.142;11.618;2024-01-07T11:46:21;3.70;53.30
2749;DHT22;1382;52.142;11.618;2024-01-07T11:48:48;3.70;53.40
2749;DHT22;1382;52.142;11.618;2024-01-07T11:51:15;3.70;53.10
2749;DHT22;1382;52.142;11.618;2024-01-07T11:53:42;3.70;52.90
2749;DHT22;1382;52.142;11.618;2024-01-07T11:56:12;3.70;53.00
2749;DHT22;1382;52.142;11.618;2024-01-07T11:58:40;3.80;52.80
2749;DHT22;1382;52.142;11.618;2024-01-07T12:01:08;3.80;52.90
2749;DHT22;1382;52.142;11.618;2024-01-07T12:03:35;3.80;53.20
2749;DHT22;1382;52.142;11.618;2024-01-07T12:06:02;3.80;53.80
2749;DHT22;1382;52.142;11.618;2024-01-07T12:08:30;3.80;53.40
2749;DHT22;1382;52.142;11.618;2024-01-07T12:10:57;3.80;53.30
2749;DHT22;1382;52.142;11.618;2024-01-07T12:13:24;3.90;53.50
2749;DHT22;1382;52.142;11.618;2024-01-07T12:15:51;3.90;53.40
2749;DHT22;1382;52.142;11.618;2024-01-07T12:18:20;3.90;53.10
2749;DHT22;1382;52.142;11.618;2024-01-07T12:20:55;3.90;52.70
2749;DHT22;1382;52.142;11.618;2024-01-07T12:23:22;4.10;52.80
2749;DHT22;1382;52.142;11.618;2024-01-07T12:25:49;3.90;52.80
2749;DHT22;1382;52.142;11.618;2024-01-07T12:28:16;3.90;53.00
2749;DHT22;1382;52.142;11.618;2024-01-07T12:30:43;3.90;53.10
2749;DHT22;1382;52.142;11.618;2024-01-07T12:33:10;3.90;53.20
2749;DHT22;1382;52.142;11.618;2024-01-07T12:35:39;4.10;53.70
2749;DHT22;1382;52.142;11.618;2024-01-07T12:38:06;4.00;53.60
2749;DHT22;1382;52.142;11.618;2024-01-07T12:40:32;4.00;53.40
2749;DHT22;1382;52.142;11.618;2024-01-07T12:42:59;4.00;53.60
2749;DHT22;1382;52.142;11.618;2024-01-07T12:45:26;4.00;53.80
2749;DHT22;1382;52.142;11.618;2024-01-07T12:47:53;4.00;54.00
2749;DHT22;1382;52.142;11.618;2024-01-07T12:50:20;4.20;54.20
2749;DHT22;1382;52.142;11.618;2024-01-07T12:52:48;4.10;54.00
2749;DHT22;1382;52.142;11.618;2024-01-07T12:55:15;4.10;53.80
2749;DHT22;1382;52.142;11.618;2024-01-07T12:57:42;4.10;53.60
2749;DHT22;1382;52.142;11.618;2024-01-07T13:00:09;4.10;53.40
2749;DHT22;1382;52.142;11.618;2024-01-07T13:02:37;4.10;53.30
2749;DHT22;1382;52.142;11.618;2024-01-07T13:05:04;4.20;53.30
2749;DHT22;1382;52.142;11.618;2024-01-07T13:07:31;4.00;53.50
2749;DHT22;1382;52.142;11.618;2024-01-07T13:10:00;4.10;54.10
2749;DHT22;1382;52.142;11.618;2024-01-07T13:12:27;4.10;54.30
2749;DHT22;1382;52.142;11.618;2024-01-07T13:15:09;4.10;54.50
2749;DHT22;1382;52.142;11.618;2024-01-07T13:17:37;4.10;54.50
2749;DHT22;1382;52.142;11.618;2024-01-07T13:20:05;4.10;54.10
2749;DHT22;1382;52.142;11.618;2024-01-07T13:22:32;4.10;54.30
2749;DHT22;1382;52.142;11.618;2024-01-07T13:25:01;4.30;54.30
2749;DHT22;1382;52.142;11.618;2024-01-07T13:27:28;4.20;53.80
2749;DHT22;1382;52.142;11.618;2024-01-07T13:29:55;4.20;54.00
2749;DHT22;1382;52.142;11.618;2024-01-07T13:32:21;4.10;54.00
2749;DHT22;1382;52.142;11.618;2024-01-07T13:34:48;4.30;54.20
2749;DHT22;1382;52.142;11.618;2024-01-07T13:37:15;4.10;54.30
2749;DHT22;1382;52.142;11.618;2024-01-07T13:39:42;4.10;54.40
2749;DHT22;1382;52.142;11.618;2024-01-07T13:42:10;4.10;54.20
2749;DHT22;1382;52.142;11.618;2024-01-07T13:44:37;4.20;54.30
2749;DHT22;1382;52.142;11.618;2024-01-07T13:47:04;4.10;54.20
2749;DHT22;1382;52.142;11.618;2024-01-07T13:49:31;4.10;54.20
2749;DHT22;1382;52.142;11.618;2024-01-07T13:51:58;4.20;54.20
2749;DHT22;1382;52.142;11.618;2024-01-07T13:54:25;4.10;54.80
2749;DHT22;1382;52.142;11.618;2024-01-07T13:56:52;4.10;54.30
2749;DHT22;1382;52.142;11.618;2024-01-07T13:59:20;4.10;54.30
2749;DHT22;1382;52.142;11.618;2024-01-07T14:01:47;4.10;54.40
2749;DHT22;1382;52.142;11.618;2024-01-07T14:04:14;4.10;54.50
2749;DHT22;1382;52.142;11.618;2024-01-07T14:06:42;4.10;54.40
2749;DHT22;1382;52.142;11.618;2024-01-07T14:09:09;4.10;54.60
2749;DHT22;1382;52.142;11.618;2024-01-07T14:11:35;4.10;54.60
2749;DHT22;1382;52.142;11.618;2024-01-07T14:14:02;4.10;54.60
2749;DHT22;1382;52.142;11.618;2024-01-07T14:16:31;4.10;54.80
2749;DHT22;1382;52.142;11.618;2024-01-07T14:18:58;4.10;54.80
2749;DHT22;1382;52.142;11.618;2024-01-07T14:21:27;4.20;54.90
2749;DHT22;1382;52.142;11.618;2024-01-07T14:23:54;4.10;54.80
2749;DHT22;1382;52.142;11.618;2024-01-07T14:26:21;4.00;54.80
2749;DHT22;1382;52.142;11.618;2024-01-07T14:28:48;4.00;54.80
2749;DHT22;1382;52.142;11.618;2024-01-07T14:31:38;4.20;55.00
2749;DHT22;1382;52.142;11.618;2024-01-07T14:34:10;4.10;55.10
2749;DHT22;1382;52.142;11.618;2024-01-07T14:36:42;4.10;55.10
2749;DHT22;1382;52.142;11.618;2024-01-07T14:39:10;4.30;55.10
2749;DHT22;1382;52.142;11.618;2024-01-07T14:41:37;4.30;55.00
2749;DHT22;1382;52.142;11.618;2024-01-07T14:44:04;4.00;54.80
2749;DHT22;1382;52.142;11.618;2024-01-07T14:46:38;4.10;55.60
2749;DHT22;1382;52.142;11.618;2024-01-07T14:49:06;4.10;55.00
2749;DHT22;1382;52.142;11.618;2024-01-07T14:51:47;4.10;55.10
2749;DHT22;1382;52.142;11.618;2024-01-07T14:54:14;4.10;55.00
2749;DHT22;1382;52.142;11.618;2024-01-07T14:56:43;4.20;55.20
2749;DHT22;1382;52.142;11.618;2024-01-07T14:59:10;4.10;55.00
2749;DHT22;1382;52.142;11.618;2024-01-07T15:01:43;4.30;55.30
2749;DHT22;1382;52.142;11.618;2024-01-07T15:04:10;4.30;55.30
2749;DHT22;1382;52.142;11.618;2024-01-07T15:06:41;4.10;55.10
2749;DHT22;1382;52.142;11.618;2024-01-07T15:09:09;4.10;55.00
2749;DHT22;1382;52.142;11.618;2024-01-07T15:11:36;4.10;55.00
2749;DHT22;1382;52.142;11.618;2024-01-07T15:14:05;4.10;54.90
2749;DHT22;1382;52.142;11.618;2024-01-07T15:16:33;4.10;54.80
2749;DHT22;1382;52.142;11.618;2024-01-07T15:19:02;4.10;54.50
2749;DHT22;1382;52.142;11.618;2024-01-07T15:21:29;4.10;54.60
2749;DHT22;1382;52.142;11.618;2024-01-07T15:23:56;4.10;54.70
2749;DHT22;1382;52.142;11.618;2024-01-07T15:26:41;4.20;54.80
2749;DHT22;1382;52.142;11.618;2024-01-07T15:30:51;4.10;54.50
2749;DHT22;1382;52.142;11.618;2024-01-07T15:32:41;4.10;54.40
2749;DHT22;1382;52.142;11.618;2024-01-07T15:35:20;4.00;54.60
2749;DHT22;1382;52.142;11.618;2024-01-07T15:37:53;4.10;54.60
2749;DHT22;1382;52.142;11.618;2024-01-07T15:40:20;4.10;55.20
2749;DHT22;1382;52.142;11.618;2024-01-07T15:42:47;4.10;54.40
2749;DHT22;1382;52.142;11.618;2024-01-07T15:45:17;4.10;54.20
2749;DHT22;1382;52.142;11.618;2024-01-07T15:47:45;4.10;54.10
2749;DHT22;1382;52.142;11.618;2024-01-07T15:50:16;4.10;53.90
2749;DHT22;1382;52.142;11.618;2024-01-07T15:52:43;4.00;54.00
2749;DHT22;1382;52.142;11.618;2024-01-07T15:55:11;4.10;54.20
2749;DHT22;1382;52.142;11.618;2024-01-07T15:57:54;4.00;53.70
2749;DHT22;1382;52.142;11.618;2024-01-07T16:02:48;4.10;54.00
2749;DHT22;1382;52.142;11.618;2024-01-07T16:04:18;4.10;53.50
2749;DHT22;1382;52.142;11.618;2024-01-07T16:07:14;4.00;53.80
2749;DHT22;1382;52.142;11.618;2024-01-07T16:13:52;4.00;54.20